Fetters Hot Springs, California
Current Conditions -  °F | °C
As of 10:55 AM on Friday 28 Nov 2014 (Local Time) from KO69 Reporting Station
Overcast Overcast  
Wind Chill: 48°   Ceiling: 400
Heat Index: 48°   Visibility: 3mi
Dew Point: 48°   Wind: 0mph
Humidity: 100%   Direction: NA
Pressure: 30.04"   Gusts: NA
Location:  38.3176°N, 122.485°W
Report Text: KO69 281855Z AUTO 00000KT 3SM OVC004 09/09 A3004 RMK AO1
Loading
Personal Weather Stations






























Interactive Weather Map New forecast layout! Learn more

10-Day Weather Forecast

Advertisements
Track Severe Weather on mobile